sensor_id;sensor_type;location;lat;lon;timestamp;P1;durP1;ratioP1;P2;durP2;ratioP2
42972;SDS011;28610;51.214;6.962;2022-08-01T00:02:31;12.45;;;8.30;;
42972;SDS011;28610;51.214;6.962;2022-08-01T00:05:17;14.35;;;8.52;;
42972;SDS011;28610;51.214;6.962;2022-08-01T00:08:02;12.95;;;8.10;;
42972;SDS011;28610;51.214;6.962;2022-08-01T00:10:48;16.75;;;7.97;;
42972;SDS011;28610;51.214;6.962;2022-08-01T00:13:35;16.88;;;7.68;;
42972;SDS011;28610;51.214;6.962;2022-08-01T00:16:20;16.40;;;8.18;;
42972;SDS011;28610;51.214;6.962;2022-08-01T00:19:07;15.10;;;7.90;;
42972;SDS011;28610;51.214;6.962;2022-08-01T00:21:52;13.75;;;7.70;;
42972;SDS011;28610;51.214;6.962;2022-08-01T00:24:37;13.40;;;7.32;;
42972;SDS011;28610;51.214;6.962;2022-08-01T00:27:23;15.00;;;8.63;;
42972;SDS011;28610;51.214;6.962;2022-08-01T00:30:10;12.38;;;7.93;;
42972;SDS011;28610;51.214;6.962;2022-08-01T00:32:56;14.32;;;8.57;;
42972;SDS011;28610;51.214;6.962;2022-08-01T00:35:41;17.38;;;8.40;;
42972;SDS011;28610;51.214;6.962;2022-08-01T00:38:27;14.55;;;8.52;;
42972;SDS011;28610;51.214;6.962;2022-08-01T00:41:12;15.82;;;8.98;;
42972;SDS011;28610;51.214;6.962;2022-08-01T00:43:58;12.77;;;7.72;;
42972;SDS011;28610;51.214;6.962;2022-08-01T00:46:48;14.10;;;7.93;;
42972;SDS011;28610;51.214;6.962;2022-08-01T00:49:33;21.83;;;8.90;;
42972;SDS011;28610;51.214;6.962;2022-08-01T00:52:19;14.07;;;8.23;;
42972;SDS011;28610;51.214;6.962;2022-08-01T00:55:05;13.45;;;8.43;;
42972;SDS011;28610;51.214;6.962;2022-08-01T00:57:51;19.50;;;9.60;;
42972;SDS011;28610;51.214;6.962;2022-08-01T01:00:36;18.05;;;9.73;;
42972;SDS011;28610;51.214;6.962;2022-08-01T01:03:23;16.35;;;8.88;;
42972;SDS011;28610;51.214;6.962;2022-08-01T01:06:12;17.70;;;9.90;;
42972;SDS011;28610;51.214;6.962;2022-08-01T01:09:11;18.63;;;9.50;;
42972;SDS011;28610;51.214;6.962;2022-08-01T01:12:10;20.95;;;9.63;;
42972;SDS011;28610;51.214;6.962;2022-08-01T01:15:02;19.55;;;10.10;;
42972;SDS011;28610;51.214;6.962;2022-08-01T01:17:51;19.70;;;10.48;;
42972;SDS011;28610;51.214;6.962;2022-08-01T01:20:44;17.58;;;10.45;;
42972;SDS011;28610;51.214;6.962;2022-08-01T01:23:39;17.63;;;10.57;;
42972;SDS011;28610;51.214;6.962;2022-08-01T01:26:31;20.63;;;11.10;;
42972;SDS011;28610;51.214;6.962;2022-08-01T01:29:26;20.50;;;10.82;;
42972;SDS011;28610;51.214;6.962;2022-08-01T01:32:16;21.27;;;10.73;;
42972;SDS011;28610;51.214;6.962;2022-08-01T01:35:07;21.58;;;11.27;;
42972;SDS011;28610;51.214;6.962;2022-08-01T01:37:58;20.80;;;11.30;;
42972;SDS011;28610;51.214;6.962;2022-08-01T01:40:49;19.23;;;10.80;;
42972;SDS011;28610;51.214;6.962;2022-08-01T01:43:36;20.92;;;10.52;;
42972;SDS011;28610;51.214;6.962;2022-08-01T01:46:24;18.77;;;10.20;;
42972;SDS011;28610;51.214;6.962;2022-08-01T01:49:11;24.10;;;11.30;;
42972;SDS011;28610;51.214;6.962;2022-08-01T01:51:58;22.30;;;11.90;;
42972;SDS011;28610;51.214;6.962;2022-08-01T01:54:47;23.48;;;12.55;;
42972;SDS011;28610;51.214;6.962;2022-08-01T01:57:35;21.70;;;12.57;;
42972;SDS011;28610;51.214;6.962;2022-08-01T02:00:22;18.65;;;10.98;;
42972;SDS011;28610;51.214;6.962;2022-08-01T02:03:11;19.67;;;10.73;;
42972;SDS011;28610;51.214;6.962;2022-08-01T02:05:58;25.25;;;13.52;;
42972;SDS011;28610;51.214;6.962;2022-08-01T02:08:45;22.25;;;11.48;;
42972;SDS011;28610;51.214;6.962;2022-08-01T02:11:32;22.60;;;11.98;;
42972;SDS011;28610;51.214;6.962;2022-08-01T02:14:18;29.58;;;12.05;;
42972;SDS011;28610;51.214;6.962;2022-08-01T02:17:07;23.30;;;11.48;;
42972;SDS011;28610;51.214;6.962;2022-08-01T02:19:57;25.23;;;12.98;;
42972;SDS011;28610;51.214;6.962;2022-08-01T02:22:44;24.35;;;12.18;;
42972;SDS011;28610;51.214;6.962;2022-08-01T02:25:36;23.20;;;11.10;;
42972;SDS011;28610;51.214;6.962;2022-08-01T02:28:29;24.23;;;11.27;;
42972;SDS011;28610;51.214;6.962;2022-08-01T02:31:18;25.92;;;11.73;;
42972;SDS011;28610;51.214;6.962;2022-08-01T02:34:06;21.67;;;11.82;;
42972;SDS011;28610;51.214;6.962;2022-08-01T02:36:56;26.08;;;12.20;;
42972;SDS011;28610;51.214;6.962;2022-08-01T02:39:42;21.48;;;11.68;;
42972;SDS011;28610;51.214;6.962;2022-08-01T02:42:32;24.13;;;11.32;;
42972;SDS011;28610;51.214;6.962;2022-08-01T02:45:21;23.33;;;11.85;;
42972;SDS011;28610;51.214;6.962;2022-08-01T02:48:09;21.65;;;11.73;;
42972;SDS011;28610;51.214;6.962;2022-08-01T02:50:57;28.48;;;13.48;;
42972;SDS011;28610;51.214;6.962;2022-08-01T02:53:46;21.80;;;11.80;;
42972;SDS011;28610;51.214;6.962;2022-08-01T02:56:33;24.88;;;12.80;;
42972;SDS011;28610;51.214;6.962;2022-08-01T02:59:21;27.08;;;12.93;;
42972;SDS011;28610;51.214;6.962;2022-08-01T03:02:09;23.85;;;11.52;;
42972;SDS011;28610;51.214;6.962;2022-08-01T03:04:56;28.65;;;13.65;;
42972;SDS011;28610;51.214;6.962;2022-08-01T03:07:43;26.77;;;13.75;;
42972;SDS011;28610;51.214;6.962;2022-08-01T03:10:31;25.15;;;12.93;;
42972;SDS011;28610;51.214;6.962;2022-08-01T03:13:18;28.63;;;13.77;;
42972;SDS011;28610;51.214;6.962;2022-08-01T03:16:05;28.30;;;14.90;;
42972;SDS011;28610;51.214;6.962;2022-08-01T03:18:51;32.38;;;16.17;;
42972;SDS011;28610;51.214;6.962;2022-08-01T03:21:40;28.77;;;13.85;;
42972;SDS011;28610;51.214;6.962;2022-08-01T03:24:27;25.77;;;14.32;;
42972;SDS011;28610;51.214;6.962;2022-08-01T03:27:14;26.17;;;13.98;;
42972;SDS011;28610;51.214;6.962;2022-08-01T03:30:03;30.17;;;15.85;;
42972;SDS011;28610;51.214;6.962;2022-08-01T03:32:49;32.17;;;14.82;;
42972;SDS011;28610;51.214;6.962;2022-08-01T03:35:35;28.02;;;14.10;;
42972;SDS011;28610;51.214;6.962;2022-08-01T03:38:24;28.58;;;15.43;;
42972;SDS011;28610;51.214;6.962;2022-08-01T03:41:12;28.13;;;14.93;;
42972;SDS011;28610;51.214;6.962;2022-08-01T03:44:02;33.17;;;16.60;;
42972;SDS011;28610;51.214;6.962;2022-08-01T03:46:52;29.60;;;14.77;;
42972;SDS011;28610;51.214;6.962;2022-08-01T03:49:43;31.42;;;15.90;;
42972;SDS011;28610;51.214;6.962;2022-08-01T03:52:31;31.00;;;15.90;;
42972;SDS011;28610;51.214;6.962;2022-08-01T03:55:18;30.25;;;15.40;;
42972;SDS011;28610;51.214;6.962;2022-08-01T03:58:06;35.60;;;18.30;;
42972;SDS011;28610;51.214;6.962;2022-08-01T04:00:54;36.53;;;17.35;;
42972;SDS011;28610;51.214;6.962;2022-08-01T04:03:40;35.38;;;17.27;;
42972;SDS011;28610;51.214;6.962;2022-08-01T04:06:26;37.00;;;19.10;;
42972;SDS011;28610;51.214;6.962;2022-08-01T04:09:12;40.00;;;18.95;;
42972;SDS011;28610;51.214;6.962;2022-08-01T04:11:58;37.05;;;18.60;;
42972;SDS011;28610;51.214;6.962;2022-08-01T04:14:43;37.38;;;19.13;;
42972;SDS011;28610;51.214;6.962;2022-08-01T04:17:30;39.45;;;19.90;;
42972;SDS011;28610;51.214;6.962;2022-08-01T04:20:16;43.90;;;20.58;;
42972;SDS011;28610;51.214;6.962;2022-08-01T04:23:02;45.60;;;21.77;;
42972;SDS011;28610;51.214;6.962;2022-08-01T04:25:47;46.97;;;21.75;;
42972;SDS011;28610;51.214;6.962;2022-08-01T04:28:36;45.47;;;22.95;;
42972;SDS011;28610;51.214;6.962;2022-08-01T04:31:23;41.33;;;22.30;;
42972;SDS011;28610;51.214;6.962;2022-08-01T04:34:12;41.20;;;21.48;;
42972;SDS011;28610;51.214;6.962;2022-08-01T04:37:01;37.97;;;18.70;;
42972;SDS011;28610;51.214;6.962;2022-08-01T04:39:48;43.22;;;21.55;;
42972;SDS011;28610;51.214;6.962;2022-08-01T04:42:36;51.28;;;22.85;;
42972;SDS011;28610;51.214;6.962;2022-08-01T04:45:22;44.95;;;22.52;;
42972;SDS011;28610;51.214;6.962;2022-08-01T04:48:09;42.65;;;22.63;;
42972;SDS011;28610;51.214;6.962;2022-08-01T04:50:56;44.60;;;22.15;;
42972;SDS011;28610;51.214;6.962;2022-08-01T04:53:43;37.70;;;21.77;;
42972;SDS011;28610;51.214;6.962;2022-08-01T04:56:29;32.90;;;18.95;;
42972;SDS011;28610;51.214;6.962;2022-08-01T04:59:14;41.90;;;21.63;;
42972;SDS011;28610;51.214;6.962;2022-08-01T05:02:18;37.40;;;20.20;;
42972;SDS011;28610;51.214;6.962;2022-08-01T05:05:04;43.95;;;22.48;;
42972;SDS011;28610;51.214;6.962;2022-08-01T05:07:52;38.58;;;21.00;;
42972;SDS011;28610;51.214;6.962;2022-08-01T05:10:37;39.03;;;20.00;;
42972;SDS011;28610;51.214;6.962;2022-08-01T05:13:23;44.03;;;21.45;;
42972;SDS011;28610;51.214;6.962;2022-08-01T05:16:09;46.92;;;23.38;;
42972;SDS011;28610;51.214;6.962;2022-08-01T05:18:54;47.15;;;22.92;;
42972;SDS011;28610;51.214;6.962;2022-08-01T05:21:40;49.75;;;22.90;;
42972;SDS011;28610;51.214;6.962;2022-08-01T05:24:27;45.67;;;22.52;;
42972;SDS011;28610;51.214;6.962;2022-08-01T05:27:13;42.72;;;22.52;;
42972;SDS011;28610;51.214;6.962;2022-08-01T05:29:58;46.88;;;22.95;;
42972;SDS011;28610;51.214;6.962;2022-08-01T05:32:43;43.83;;;21.30;;
42972;SDS011;28610;51.214;6.962;2022-08-01T05:35:29;43.38;;;23.20;;
42972;SDS011;28610;51.214;6.962;2022-08-01T05:38:14;46.13;;;25.23;;
42972;SDS011;28610;51.214;6.962;2022-08-01T05:41:01;44.85;;;23.42;;
42972;SDS011;28610;51.214;6.962;2022-08-01T05:43:46;41.13;;;22.20;;
42972;SDS011;28610;51.214;6.962;2022-08-01T05:46:32;42.00;;;22.65;;
42972;SDS011;28610;51.214;6.962;2022-08-01T05:49:18;45.75;;;23.90;;
42972;SDS011;28610;51.214;6.962;2022-08-01T05:52:03;44.42;;;22.55;;
42972;SDS011;28610;51.214;6.962;2022-08-01T05:54:48;41.67;;;23.48;;
42972;SDS011;28610;51.214;6.962;2022-08-01T05:57:35;44.92;;;23.80;;
42972;SDS011;28610;51.214;6.962;2022-08-01T06:00:21;44.25;;;22.25;;
42972;SDS011;28610;51.214;6.962;2022-08-01T06:03:06;44.28;;;23.27;;
42972;SDS011;28610;51.214;6.962;2022-08-01T06:05:52;42.67;;;23.00;;
42972;SDS011;28610;51.214;6.962;2022-08-01T06:08:37;39.33;;;22.58;;
42972;SDS011;28610;51.214;6.962;2022-08-01T06:11:23;45.95;;;23.65;;
42972;SDS011;28610;51.214;6.962;2022-08-01T06:14:09;39.00;;;21.85;;
42972;SDS011;28610;51.214;6.962;2022-08-01T06:16:55;40.83;;;22.10;;
42972;SDS011;28610;51.214;6.962;2022-08-01T06:19:40;43.42;;;23.50;;
42972;SDS011;28610;51.214;6.962;2022-08-01T06:22:26;38.08;;;21.40;;
42972;SDS011;28610;51.214;6.962;2022-08-01T06:25:11;41.75;;;22.23;;
42972;SDS011;28610;51.214;6.962;2022-08-01T06:27:57;40.88;;;20.95;;
42972;SDS011;28610;51.214;6.962;2022-08-01T06:30:43;37.80;;;20.95;;
42972;SDS011;28610;51.214;6.962;2022-08-01T06:33:28;42.78;;;22.85;;
42972;SDS011;28610;51.214;6.962;2022-08-01T06:36:14;40.03;;;22.23;;
42972;SDS011;28610;51.214;6.962;2022-08-01T06:38:59;39.30;;;21.88;;
42972;SDS011;28610;51.214;6.962;2022-08-01T06:41:45;38.28;;;21.60;;
42972;SDS011;28610;51.214;6.962;2022-08-01T06:44:30;34.90;;;20.40;;
42972;SDS011;28610;51.214;6.962;2022-08-01T06:47:17;37.80;;;20.55;;
42972;SDS011;28610;51.214;6.962;2022-08-01T06:50:03;36.28;;;20.70;;
42972;SDS011;28610;51.214;6.962;2022-08-01T06:52:49;36.05;;;20.27;;
42972;SDS011;28610;51.214;6.962;2022-08-01T06:55:35;36.25;;;19.77;;
42972;SDS011;28610;51.214;6.962;2022-08-01T06:58:20;31.65;;;19.25;;
42972;SDS011;28610;51.214;6.962;2022-08-01T07:01:06;33.35;;;18.63;;
42972;SDS011;28610;51.214;6.962;2022-08-01T07:03:52;25.92;;;17.02;;
42972;SDS011;28610;51.214;6.962;2022-08-01T07:06:38;27.98;;;17.02;;
42972;SDS011;28610;51.214;6.962;2022-08-01T07:09:23;30.55;;;18.13;;
42972;SDS011;28610;51.214;6.962;2022-08-01T07:12:09;31.98;;;18.75;;
42972;SDS011;28610;51.214;6.962;2022-08-01T07:14:54;31.60;;;17.17;;
42972;SDS011;28610;51.214;6.962;2022-08-01T07:17:40;25.63;;;16.75;;
42972;SDS011;28610;51.214;6.962;2022-08-01T07:20:28;25.02;;;16.08;;
42972;SDS011;28610;51.214;6.962;2022-08-01T07:23:13;24.48;;;14.75;;
42972;SDS011;28610;51.214;6.962;2022-08-01T07:25:59;20.60;;;13.02;;
42972;SDS011;28610;51.214;6.962;2022-08-01T07:28:45;24.50;;;14.13;;
42972;SDS011;28610;51.214;6.962;2022-08-01T07:31:30;19.33;;;12.48;;
42972;SDS011;28610;51.214;6.962;2022-08-01T07:34:16;19.27;;;11.30;;
42972;SDS011;28610;51.214;6.962;2022-08-01T07:37:03;18.30;;;9.25;;
42972;SDS011;28610;51.214;6.962;2022-08-01T07:39:48;16.73;;;9.30;;
42972;SDS011;28610;51.214;6.962;2022-08-01T07:42:33;16.17;;;9.63;;
42972;SDS011;28610;51.214;6.962;2022-08-01T07:45:19;13.75;;;7.75;;
42972;SDS011;28610;51.214;6.962;2022-08-01T07:48:05;15.43;;;8.65;;
42972;SDS011;28610;51.214;6.962;2022-08-01T07:50:51;15.02;;;8.20;;
42972;SDS011;28610;51.214;6.962;2022-08-01T07:53:38;13.18;;;7.75;;
42972;SDS011;28610;51.214;6.962;2022-08-01T07:56:23;14.60;;;8.57;;
42972;SDS011;28610;51.214;6.962;2022-08-01T07:59:09;15.43;;;8.02;;
42972;SDS011;28610;51.214;6.962;2022-08-01T08:01:55;11.93;;;6.32;;
42972;SDS011;28610;51.214;6.962;2022-08-01T08:04:40;11.98;;;6.72;;
42972;SDS011;28610;51.214;6.962;2022-08-01T08:07:26;12.50;;;7.20;;
42972;SDS011;28610;51.214;6.962;2022-08-01T08:10:12;12.38;;;7.65;;
42972;SDS011;28610;51.214;6.962;2022-08-01T08:12:58;13.82;;;7.30;;
42972;SDS011;28610;51.214;6.962;2022-08-01T08:15:44;13.10;;;7.18;;
42972;SDS011;28610;51.214;6.962;2022-08-01T08:18:29;12.75;;;7.03;;
42972;SDS011;28610;51.214;6.962;2022-08-01T08:21:15;12.70;;;6.78;;
42972;SDS011;28610;51.214;6.962;2022-08-01T08:24:00;10.98;;;5.80;;
42972;SDS011;28610;51.214;6.962;2022-08-01T08:27:04;11.02;;;6.00;;
42972;SDS011;28610;51.214;6.962;2022-08-01T08:29:51;11.25;;;6.05;;
42972;SDS011;28610;51.214;6.962;2022-08-01T08:32:36;10.07;;;6.00;;
42972;SDS011;28610;51.214;6.962;2022-08-01T08:35:22;8.82;;;5.38;;
42972;SDS011;28610;51.214;6.962;2022-08-01T08:38:08;8.05;;;5.00;;
42972;SDS011;28610;51.214;6.962;2022-08-01T08:40:53;9.05;;;5.15;;
42972;SDS011;28610;51.214;6.962;2022-08-01T08:43:41;7.40;;;4.15;;
42972;SDS011;28610;51.214;6.962;2022-08-01T08:46:27;6.00;;;3.83;;
42972;SDS011;28610;51.214;6.962;2022-08-01T08:49:15;6.70;;;3.88;;
42972;SDS011;28610;51.214;6.962;2022-08-01T08:52:03;6.15;;;3.97;;
42972;SDS011;28610;51.214;6.962;2022-08-01T08:54:49;5.95;;;4.10;;
42972;SDS011;28610;51.214;6.962;2022-08-01T08:57:36;7.68;;;4.30;;
42972;SDS011;28610;51.214;6.962;2022-08-01T09:00:26;6.38;;;3.90;;
42972;SDS011;28610;51.214;6.962;2022-08-01T09:03:11;7.32;;;4.13;;
42972;SDS011;28610;51.214;6.962;2022-08-01T09:05:57;6.70;;;3.72;;
42972;SDS011;28610;51.214;6.962;2022-08-01T09:08:42;10.13;;;5.20;;
42972;SDS011;28610;51.214;6.962;2022-08-01T09:11:27;6.82;;;4.05;;
42972;SDS011;28610;51.214;6.962;2022-08-01T09:14:14;7.15;;;4.22;;
42972;SDS011;28610;51.214;6.962;2022-08-01T09:17:07;7.28;;;4.75;;
42972;SDS011;28610;51.214;6.962;2022-08-01T09:19:56;8.63;;;4.55;;
42972;SDS011;28610;51.214;6.962;2022-08-01T09:22:41;8.93;;;4.80;;
42972;SDS011;28610;51.214;6.962;2022-08-01T09:25:27;6.53;;;4.22;;
42972;SDS011;28610;51.214;6.962;2022-08-01T09:28:16;10.75;;;6.75;;
42972;SDS011;28610;51.214;6.962;2022-08-01T09:31:05;9.23;;;4.68;;
42972;SDS011;28610;51.214;6.962;2022-08-01T09:33:54;7.00;;;3.80;;
42972;SDS011;28610;51.214;6.962;2022-08-01T09:36:43;7.60;;;4.47;;
42972;SDS011;28610;51.214;6.962;2022-08-01T09:39:33;6.53;;;4.07;;
42972;SDS011;28610;51.214;6.962;2022-08-01T09:42:21;10.15;;;4.65;;
42972;SDS011;28610;51.214;6.962;2022-08-01T09:45:09;7.13;;;4.22;;
42972;SDS011;28610;51.214;6.962;2022-08-01T09:47:54;7.20;;;4.00;;
42972;SDS011;28610;51.214;6.962;2022-08-01T09:50:41;6.97;;;3.92;;
42972;SDS011;28610;51.214;6.962;2022-08-01T09:53:28;6.07;;;3.58;;
42972;SDS011;28610;51.214;6.962;2022-08-01T09:56:26;6.60;;;3.80;;
42972;SDS011;28610;51.214;6.962;2022-08-01T09:59:19;6.75;;;4.15;;
42972;SDS011;28610;51.214;6.962;2022-08-01T10:02:05;8.93;;;4.13;;
42972;SDS011;28610;51.214;6.962;2022-08-01T10:04:52;7.30;;;3.85;;
42972;SDS011;28610;51.214;6.962;2022-08-01T10:10:43;7.45;;;3.65;;
42972;SDS011;28610;51.214;6.962;2022-08-01T10:13:52;6.40;;;3.78;;
42972;SDS011;28610;51.214;6.962;2022-08-01T10:16:39;9.95;;;3.70;;
42972;SDS011;28610;51.214;6.962;2022-08-01T10:19:25;5.72;;;3.20;;
42972;SDS011;28610;51.214;6.962;2022-08-01T10:22:12;6.18;;;3.47;;
42972;SDS011;28610;51.214;6.962;2022-08-01T10:25:02;6.60;;;3.22;;
42972;SDS011;28610;51.214;6.962;2022-08-01T10:27:49;5.53;;;3.38;;
42972;SDS011;28610;51.214;6.962;2022-08-01T10:30:38;5.80;;;2.72;;
42972;SDS011;28610;51.214;6.962;2022-08-01T10:33:26;5.82;;;2.95;;
42972;SDS011;28610;51.214;6.962;2022-08-01T10:36:14;5.28;;;3.30;;
42972;SDS011;28610;51.214;6.962;2022-08-01T10:39:02;5.65;;;3.42;;
42972;SDS011;28610;51.214;6.962;2022-08-01T10:41:50;5.25;;;3.00;;
42972;SDS011;28610;51.214;6.962;2022-08-01T10:44:37;5.97;;;3.40;;
42972;SDS011;28610;51.214;6.962;2022-08-01T10:47:23;4.72;;;2.90;;
42972;SDS011;28610;51.214;6.962;2022-08-01T10:50:24;4.57;;;3.15;;
42972;SDS011;28610;51.214;6.962;2022-08-01T10:53:16;5.18;;;3.33;;
42972;SDS011;28610;51.214;6.962;2022-08-01T10:56:03;5.70;;;3.15;;
42972;SDS011;28610;51.214;6.962;2022-08-01T10:58:51;4.43;;;2.78;;
42972;SDS011;28610;51.214;6.962;2022-08-01T11:01:47;4.20;;;2.65;;
42972;SDS011;28610;51.214;6.962;2022-08-01T11:04:44;5.05;;;2.80;;
42972;SDS011;28610;51.214;6.962;2022-08-01T11:07:43;5.65;;;2.63;;
42972;SDS011;28610;51.214;6.962;2022-08-01T11:10:33;5.78;;;3.30;;
42972;SDS011;28610;51.214;6.962;2022-08-01T11:13:35;4.75;;;2.97;;
42972;SDS011;28610;51.214;6.962;2022-08-01T11:16:53;6.53;;;2.60;;
42972;SDS011;28610;51.214;6.962;2022-08-01T11:20:03;3.20;;;2.50;;
42972;SDS011;28610;51.214;6.962;2022-08-01T11:26:13;2.90;;;2.08;;
42972;SDS011;28610;51.214;6.962;2022-08-01T11:29:17;4.68;;;2.25;;
42972;SDS011;28610;51.214;6.962;2022-08-01T11:35:09;3.58;;;2.05;;
42972;SDS011;28610;51.214;6.962;2022-08-01T11:37:55;3.45;;;2.30;;
42972;SDS011;28610;51.214;6.962;2022-08-01T11:40:40;4.22;;;2.00;;
42972;SDS011;28610;51.214;6.962;2022-08-01T11:43:26;3.25;;;2.20;;
42972;SDS011;28610;51.214;6.962;2022-08-01T11:46:13;4.35;;;2.20;;
42972;SDS011;28610;51.214;6.962;2022-08-01T11:52:13;4.00;;;2.00;;
42972;SDS011;28610;51.214;6.962;2022-08-01T11:55:04;3.22;;;2.17;;
42972;SDS011;28610;51.214;6.962;2022-08-01T11:57:57;3.97;;;1.88;;
42972;SDS011;28610;51.214;6.962;2022-08-01T12:00:49;3.67;;;2.28;;
42972;SDS011;28610;51.214;6.962;2022-08-01T12:03:37;5.68;;;2.10;;
42972;SDS011;28610;51.214;6.962;2022-08-01T12:06:26;4.75;;;2.13;;
42972;SDS011;28610;51.214;6.962;2022-08-01T12:09:16;2.42;;;1.70;;
42972;SDS011;28610;51.214;6.962;2022-08-01T12:12:06;3.05;;;1.77;;
42972;SDS011;28610;51.214;6.962;2022-08-01T12:14:55;3.63;;;2.25;;
42972;SDS011;28610;51.214;6.962;2022-08-01T12:17:41;3.70;;;2.03;;
42972;SDS011;28610;51.214;6.962;2022-08-01T12:20:29;2.67;;;2.08;;
42972;SDS011;28610;51.214;6.962;2022-08-01T12:23:16;2.47;;;2.28;;
42972;SDS011;28610;51.214;6.962;2022-08-01T12:26:01;3.17;;;2.00;;
42972;SDS011;28610;51.214;6.962;2022-08-01T12:28:47;3.30;;;2.33;;
42972;SDS011;28610;51.214;6.962;2022-08-01T12:31:34;4.68;;;2.60;;
42972;SDS011;28610;51.214;6.962;2022-08-01T12:34:26;3.65;;;2.53;;
42972;SDS011;28610;51.214;6.962;2022-08-01T12:37:13;5.70;;;2.50;;
42972;SDS011;28610;51.214;6.962;2022-08-01T12:39:59;4.38;;;2.35;;
42972;SDS011;28610;51.214;6.962;2022-08-01T12:42:45;4.60;;;2.63;;
42972;SDS011;28610;51.214;6.962;2022-08-01T12:45:32;3.50;;;2.30;;
42972;SDS011;28610;51.214;6.962;2022-08-01T12:48:19;5.70;;;2.70;;
42972;SDS011;28610;51.214;6.962;2022-08-01T12:51:05;3.97;;;2.80;;
42972;SDS011;28610;51.214;6.962;2022-08-01T12:53:54;3.25;;;2.13;;
42972;SDS011;28610;51.214;6.962;2022-08-01T12:56:43;3.33;;;2.20;;
42972;SDS011;28610;51.214;6.962;2022-08-01T12:59:28;3.95;;;2.50;;
42972;SDS011;28610;51.214;6.962;2022-08-01T13:02:14;4.68;;;2.30;;
42972;SDS011;28610;51.214;6.962;2022-08-01T13:05:00;3.80;;;2.17;;
42972;SDS011;28610;51.214;6.962;2022-08-01T13:07:47;5.22;;;2.30;;
42972;SDS011;28610;51.214;6.962;2022-08-01T13:10:34;4.85;;;2.28;;
42972;SDS011;28610;51.214;6.962;2022-08-01T13:13:20;2.80;;;2.13;;
42972;SDS011;28610;51.214;6.962;2022-08-01T13:16:06;4.80;;;2.60;;
42972;SDS011;28610;51.214;6.962;2022-08-01T13:18:53;3.30;;;2.03;;
42972;SDS011;28610;51.214;6.962;2022-08-01T13:21:39;3.90;;;2.50;;
42972;SDS011;28610;51.214;6.962;2022-08-01T13:24:39;3.47;;;2.28;;
42972;SDS011;28610;51.214;6.962;2022-08-01T13:27:26;3.72;;;2.38;;
42972;SDS011;28610;51.214;6.962;2022-08-01T13:30:14;4.25;;;2.38;;
42972;SDS011;28610;51.214;6.962;2022-08-01T13:33:00;4.45;;;2.70;;
42972;SDS011;28610;51.214;6.962;2022-08-01T13:35:45;4.22;;;2.70;;
42972;SDS011;28610;51.214;6.962;2022-08-01T13:38:31;4.38;;;2.58;;
42972;SDS011;28610;51.214;6.962;2022-08-01T13:41:34;5.43;;;2.60;;
42972;SDS011;28610;51.214;6.962;2022-08-01T13:44:21;4.07;;;2.25;;
42972;SDS011;28610;51.214;6.962;2022-08-01T13:47:06;4.63;;;2.50;;
42972;SDS011;28610;51.214;6.962;2022-08-01T13:49:52;4.18;;;2.60;;
42972;SDS011;28610;51.214;6.962;2022-08-01T13:52:38;3.75;;;2.30;;
42972;SDS011;28610;51.214;6.962;2022-08-01T13:55:23;4.38;;;2.50;;
42972;SDS011;28610;51.214;6.962;2022-08-01T13:58:09;4.68;;;2.38;;
42972;SDS011;28610;51.214;6.962;2022-08-01T14:00:56;4.78;;;2.40;;
42972;SDS011;28610;51.214;6.962;2022-08-01T14:03:41;3.63;;;2.20;;
42972;SDS011;28610;51.214;6.962;2022-08-01T14:06:27;3.10;;;2.30;;
42972;SDS011;28610;51.214;6.962;2022-08-01T14:09:13;4.88;;;2.00;;
42972;SDS011;28610;51.214;6.962;2022-08-01T14:12:00;2.67;;;1.98;;
42972;SDS011;28610;51.214;6.962;2022-08-01T14:14:45;4.60;;;2.40;;
42972;SDS011;28610;51.214;6.962;2022-08-01T14:17:32;4.07;;;2.20;;
42972;SDS011;28610;51.214;6.962;2022-08-01T14:20:17;4.55;;;2.40;;
42972;SDS011;28610;51.214;6.962;2022-08-01T14:23:03;3.53;;;2.20;;
42972;SDS011;28610;51.214;6.962;2022-08-01T14:25:49;2.95;;;2.47;;
42972;SDS011;28610;51.214;6.962;2022-08-01T14:28:35;3.72;;;2.60;;
42972;SDS011;28610;51.214;6.962;2022-08-01T14:31:20;2.97;;;2.35;;
42972;SDS011;28610;51.214;6.962;2022-08-01T14:34:07;4.13;;;2.50;;
42972;SDS011;28610;51.214;6.962;2022-08-01T14:36:52;3.42;;;2.50;;
42972;SDS011;28610;51.214;6.962;2022-08-01T14:39:38;3.30;;;2.53;;
42972;SDS011;28610;51.214;6.962;2022-08-01T14:42:23;3.63;;;2.75;;
42972;SDS011;28610;51.214;6.962;2022-08-01T14:45:10;5.50;;;2.70;;
42972;SDS011;28610;51.214;6.962;2022-08-01T14:47:56;3.95;;;3.38;;
42972;SDS011;28610;51.214;6.962;2022-08-01T14:50:43;5.88;;;3.38;;
42972;SDS011;28610;51.214;6.962;2022-08-01T14:53:28;5.55;;;3.08;;
42972;SDS011;28610;51.214;6.962;2022-08-01T14:56:13;5.47;;;2.97;;
42972;SDS011;28610;51.214;6.962;2022-08-01T14:58:59;3.35;;;2.80;;
42972;SDS011;28610;51.214;6.962;2022-08-01T15:01:44;4.53;;;2.88;;
42972;SDS011;28610;51.214;6.962;2022-08-01T15:04:30;4.70;;;2.80;;
42972;SDS011;28610;51.214;6.962;2022-08-01T15:07:17;3.13;;;2.45;;
42972;SDS011;28610;51.214;6.962;2022-08-01T15:10:03;5.43;;;2.75;;
42972;SDS011;28610;51.214;6.962;2022-08-01T15:12:49;3.97;;;2.70;;
42972;SDS011;28610;51.214;6.962;2022-08-01T15:15:35;3.00;;;2.70;;
42972;SDS011;28610;51.214;6.962;2022-08-01T15:18:20;4.22;;;2.88;;
42972;SDS011;28610;51.214;6.962;2022-08-01T15:21:06;3.42;;;2.90;;
42972;SDS011;28610;51.214;6.962;2022-08-01T15:23:52;4.53;;;2.72;;
42972;SDS011;28610;51.214;6.962;2022-08-01T15:26:38;3.35;;;2.70;;
42972;SDS011;28610;51.214;6.962;2022-08-01T15:29:23;2.83;;;2.53;;
42972;SDS011;28610;51.214;6.962;2022-08-01T15:32:09;3.40;;;2.85;;
42972;SDS011;28610;51.214;6.962;2022-08-01T15:34:54;2.65;;;2.45;;
42972;SDS011;28610;51.214;6.962;2022-08-01T15:37:40;2.90;;;2.55;;
42972;SDS011;28610;51.214;6.962;2022-08-01T15:40:27;3.75;;;3.10;;
42972;SDS011;28610;51.214;6.962;2022-08-01T15:43:16;5.45;;;3.38;;
42972;SDS011;28610;51.214;6.962;2022-08-01T15:46:01;5.80;;;3.10;;
42972;SDS011;28610;51.214;6.962;2022-08-01T15:48:49;5.95;;;2.80;;
42972;SDS011;28610;51.214;6.962;2022-08-01T15:51:34;4.72;;;3.90;;
42972;SDS011;28610;51.214;6.962;2022-08-01T15:54:19;5.15;;;3.88;;
42972;SDS011;28610;51.214;6.962;2022-08-01T15:57:06;4.07;;;3.67;;
42972;SDS011;28610;51.214;6.962;2022-08-01T15:59:53;7.38;;;3.90;;
42972;SDS011;28610;51.214;6.962;2022-08-01T16:02:38;4.65;;;3.30;;
42972;SDS011;28610;51.214;6.962;2022-08-01T16:05:23;4.18;;;3.40;;
42972;SDS011;28610;51.214;6.962;2022-08-01T16:08:09;3.63;;;2.90;;
42972;SDS011;28610;51.214;6.962;2022-08-01T16:10:54;4.25;;;2.70;;
42972;SDS011;28610;51.214;6.962;2022-08-01T16:13:41;4.25;;;2.83;;
42972;SDS011;28610;51.214;6.962;2022-08-01T16:16:27;7.90;;;3.03;;
42972;SDS011;28610;51.214;6.962;2022-08-01T16:19:12;3.88;;;3.22;;
42972;SDS011;28610;51.214;6.962;2022-08-01T16:21:58;3.80;;;3.13;;
42972;SDS011;28610;51.214;6.962;2022-08-01T16:24:43;4.55;;;3.33;;
42972;SDS011;28610;51.214;6.962;2022-08-01T16:27:29;4.28;;;3.40;;
42972;SDS011;28610;51.214;6.962;2022-08-01T16:30:15;4.88;;;3.20;;
42972;SDS011;28610;51.214;6.962;2022-08-01T16:33:01;5.85;;;3.70;;
42972;SDS011;28610;51.214;6.962;2022-08-01T16:35:46;4.50;;;3.28;;
42972;SDS011;28610;51.214;6.962;2022-08-01T16:38:32;7.90;;;4.35;;
42972;SDS011;28610;51.214;6.962;2022-08-01T16:41:17;4.45;;;3.42;;
42972;SDS011;28610;51.214;6.962;2022-08-01T16:44:02;6.38;;;4.05;;
42972;SDS011;28610;51.214;6.962;2022-08-01T16:46:49;4.82;;;3.40;;
42972;SDS011;28610;51.214;6.962;2022-08-01T16:49:34;9.80;;;3.75;;